Rock Island, WA

11:40 AM PDT on May 24, 2017 (GMT -0700)
MTPALI | | Change Station
Active Advisory: Flood Warning

Elev 836 ft 47.30 °N, 120.07 °W | Updated 8 days ago

Clear
Clear
50.0 °F
Feels Like 50.0 °F
N
2.0
Wind Variable Wind from NNE
Gusts 6.0 mph

Today
High -- | Low -- °F
--% Chance of Precip.
Yesterday
High -- | Low -- °F
Precip. -- in
Pressure 29.83 in
Visibility 10.0 miles
Clouds Clear
Dew Point 42 °F
Humidity 75%
Rainfall 0.00 in
Snow Depth Not available.
5:13 AM 8:41 PM
Waning Crescent, 2% visible
METAR KEAT 241755Z AUTO 32021G31KT 10SM CLR 16/M03 A2984 RMK AO2 PK WND 31038/1700 SLP100 T01561033 10156 20089 55007
Pressure 29.83 in
Visibility 10.0 miles
Clouds Clear
Dew Point 42 °F
Humidity 75%
Rainfall 0.00 in
Snow Depth Not available.
5:13 AM 8:41 PM
Waning Crescent, 2% visible
METAR KEAT 241755Z AUTO 32021G31KT 10SM CLR 16/M03 A2984 RMK AO2 PK WND 31038/1700 SLP100 T01561033 10156 20089 55007

Get Your Daily Forecast Email!

Thanks for signing up!

Be on the lookout for a verification email in your inbox.

You'll start receiving severe weather alerts in your inbox..

×

10-Day Weather Forecast

Almanac

Astronomy

May. 24, 2017 Rise Set
Actual Time
Civil Twilight
Nautical Twilight
Astronomical Twilight
Moon
Length of Visible Light
Length of Day
Tomorrow will be .
, % of the Moon is Illuminated

Today's Extremes

State Highs State Lows

Community

WunderPhotos

Category 6

Welcome to Category 6. This is the collective home for Weather Underground's featured writeups by Dr. Jeff Masters (right), Bob Henson (left), Chris Burt, and other regular contributors.

Nearby

Air Quality

  Air Quality AQ Index Pollutant
Not available.

Snow Depth

Station Depth Elevation

Earthquake Activity

City Distance Mag. Time & Date
Minimum magnitude displayed is 2.5.

Coastal Water Temperatures

Place Temperature

Stations

Nearby Weather Stations

Station Location Temp. Windchill Dew Point Humidity Wind Precip. Elev Updated Type
                   

Watches & Warnings

Flood Warning
Issued: 4:55 AM PDT May. 24, 2017 – National Weather Service

... Flood Warning now in effect until further notice...
the Flood Warning continues for
the Stehekin River at Stehekin.
* Until further notice.
* At 3:30 am Wednesday the stage was 24.69 feet.
* Flood stage is 24.00 feet.
* Minor flooding is occurring and minor flooding is forecast.
* Forecast... the river is expected to remain above flood stage
through today and then fall below flood stage by late tonight or
early Thursday.


Lat... Lon 4849 12076 4832 12057 4825 12067 4831 12101 4848 12103


* at 24.0 feet... the river may be out of its banks in spots and onto
the Stehekin valley Road and company Creek Road.
* At 23.8 feet... mcgregor's Meadow Road will be mostly flooded.
* At 23.5 feet... some water may be over McGregor Meadows Road and the
drive through the tollber pasture. Part of the harlequin campground
may be flooded.